sensor_id;sensor_type;location;lat;lon;timestamp;temperature;humidity
13458;DHT22;6801;53.018;11.560;2023-12-07T00:01:52;2.80;83.00
13458;DHT22;6801;53.018;11.560;2023-12-07T00:04:19;2.80;82.90
13458;DHT22;6801;53.018;11.560;2023-12-07T00:06:46;2.80;82.80
13458;DHT22;6801;53.018;11.560;2023-12-07T00:09:14;2.80;82.90
13458;DHT22;6801;53.018;11.560;2023-12-07T00:11:41;2.80;83.00
13458;DHT22;6801;53.018;11.560;2023-12-07T00:14:08;2.80;82.90
13458;DHT22;6801;53.018;11.560;2023-12-07T00:16:35;2.80;83.00
13458;DHT22;6801;53.018;11.560;2023-12-07T00:19:02;2.80;83.00
13458;DHT22;6801;53.018;11.560;2023-12-07T00:21:29;2.80;83.00
13458;DHT22;6801;53.018;11.560;2023-12-07T00:23:56;2.80;82.90
13458;DHT22;6801;53.018;11.560;2023-12-07T00:26:24;2.80;83.00
13458;DHT22;6801;53.018;11.560;2023-12-07T00:28:51;2.70;83.00
13458;DHT22;6801;53.018;11.560;2023-12-07T00:31:18;2.80;83.10
13458;DHT22;6801;53.018;11.560;2023-12-07T00:33:45;2.80;82.90
13458;DHT22;6801;53.018;11.560;2023-12-07T00:36:12;2.80;82.80
13458;DHT22;6801;53.018;11.560;2023-12-07T00:38:39;2.80;82.80
13458;DHT22;6801;53.018;11.560;2023-12-07T00:41:07;2.80;82.90
13458;DHT22;6801;53.018;11.560;2023-12-07T00:43:35;2.80;83.00
13458;DHT22;6801;53.018;11.560;2023-12-07T00:46:02;2.80;82.90
13458;DHT22;6801;53.018;11.560;2023-12-07T00:48:30;2.80;83.00
13458;DHT22;6801;53.018;11.560;2023-12-07T00:50:57;2.80;83.00
13458;DHT22;6801;53.018;11.560;2023-12-07T00:53:24;2.80;83.00
13458;DHT22;6801;53.018;11.560;2023-12-07T00:55:51;2.80;82.90
13458;DHT22;6801;53.018;11.560;2023-12-07T00:58:18;2.80;82.90
13458;DHT22;6801;53.018;11.560;2023-12-07T01:00:46;2.80;82.90
13458;DHT22;6801;53.018;11.560;2023-12-07T01:03:13;2.80;82.90
13458;DHT22;6801;53.018;11.560;2023-12-07T01:05:40;2.80;82.80
13458;DHT22;6801;53.018;11.560;2023-12-07T01:08:07;2.80;82.80
13458;DHT22;6801;53.018;11.560;2023-12-07T01:10:33;2.80;82.80
13458;DHT22;6801;53.018;11.560;2023-12-07T01:13:00;2.80;82.90
13458;DHT22;6801;53.018;11.560;2023-12-07T01:15:27;2.80;82.80
13458;DHT22;6801;53.018;11.560;2023-12-07T01:17:56;2.80;82.70
13458;DHT22;6801;53.018;11.560;2023-12-07T01:20:23;2.80;82.70
13458;DHT22;6801;53.018;11.560;2023-12-07T01:22:49;2.80;82.70
13458;DHT22;6801;53.018;11.560;2023-12-07T01:25:17;2.80;82.80
13458;DHT22;6801;53.018;11.560;2023-12-07T01:27:47;2.80;82.80
13458;DHT22;6801;53.018;11.560;2023-12-07T01:30:14;2.80;82.70
13458;DHT22;6801;53.018;11.560;2023-12-07T01:32:41;2.80;82.80
13458;DHT22;6801;53.018;11.560;2023-12-07T01:35:10;2.80;82.80
13458;DHT22;6801;53.018;11.560;2023-12-07T01:37:36;2.80;82.80
13458;DHT22;6801;53.018;11.560;2023-12-07T01:40:03;2.80;82.80
13458;DHT22;6801;53.018;11.560;2023-12-07T01:42:36;2.80;82.80
13458;DHT22;6801;53.018;11.560;2023-12-07T01:45:03;2.80;82.80
13458;DHT22;6801;53.018;11.560;2023-12-07T01:47:31;2.80;82.90
13458;DHT22;6801;53.018;11.560;2023-12-07T01:49:58;2.80;82.80
13458;DHT22;6801;53.018;11.560;2023-12-07T01:52:28;2.80;82.80
13458;DHT22;6801;53.018;11.560;2023-12-07T01:54:55;2.80;82.80
13458;DHT22;6801;53.018;11.560;2023-12-07T01:57:22;2.80;82.80
13458;DHT22;6801;53.018;11.560;2023-12-07T01:59:50;2.80;82.70
13458;DHT22;6801;53.018;11.560;2023-12-07T02:02:17;2.80;82.80
13458;DHT22;6801;53.018;11.560;2023-12-07T02:04:44;2.80;82.80
13458;DHT22;6801;53.018;11.560;2023-12-07T02:07:11;2.80;82.80
13458;DHT22;6801;53.018;11.560;2023-12-07T02:09:40;2.80;82.80
13458;DHT22;6801;53.018;11.560;2023-12-07T02:12:07;2.80;82.80
13458;DHT22;6801;53.018;11.560;2023-12-07T02:14:35;2.80;82.80
13458;DHT22;6801;53.018;11.560;2023-12-07T02:17:10;2.80;82.70
13458;DHT22;6801;53.018;11.560;2023-12-07T02:19:51;2.80;82.80
13458;DHT22;6801;53.018;11.560;2023-12-07T02:22:25;2.80;82.80
13458;DHT22;6801;53.018;11.560;2023-12-07T02:25:04;2.80;82.90
13458;DHT22;6801;53.018;11.560;2023-12-07T02:27:36;2.80;82.90
13458;DHT22;6801;53.018;11.560;2023-12-07T02:30:04;2.70;82.90
13458;DHT22;6801;53.018;11.560;2023-12-07T02:32:31;2.80;83.00
13458;DHT22;6801;53.018;11.560;2023-12-07T02:34:58;2.70;82.90
13458;DHT22;6801;53.018;11.560;2023-12-07T02:37:27;2.80;83.00
13458;DHT22;6801;53.018;11.560;2023-12-07T02:39:55;2.80;82.90
13458;DHT22;6801;53.018;11.560;2023-12-07T02:42:24;2.70;83.00
13458;DHT22;6801;53.018;11.560;2023-12-07T02:44:53;2.70;83.00
13458;DHT22;6801;53.018;11.560;2023-12-07T02:47:21;2.70;83.10
13458;DHT22;6801;53.018;11.560;2023-12-07T02:49:48;2.70;83.10
13458;DHT22;6801;53.018;11.560;2023-12-07T02:52:15;2.70;83.10
13458;DHT22;6801;53.018;11.560;2023-12-07T02:54:42;2.70;83.20
13458;DHT22;6801;53.018;11.560;2023-12-07T02:57:09;2.70;83.20
13458;DHT22;6801;53.018;11.560;2023-12-07T02:59:36;2.70;83.30
13458;DHT22;6801;53.018;11.560;2023-12-07T03:02:04;2.70;83.10
13458;DHT22;6801;53.018;11.560;2023-12-07T03:04:31;2.70;83.10
13458;DHT22;6801;53.018;11.560;2023-12-07T03:06:58;2.80;83.10
13458;DHT22;6801;53.018;11.560;2023-12-07T03:09:28;2.70;83.10
13458;DHT22;6801;53.018;11.560;2023-12-07T03:11:55;2.70;83.10
13458;DHT22;6801;53.018;11.560;2023-12-07T03:14:22;2.80;83.10
13458;DHT22;6801;53.018;11.560;2023-12-07T03:16:49;2.80;83.20
13458;DHT22;6801;53.018;11.560;2023-12-07T03:19:17;2.70;83.10
13458;DHT22;6801;53.018;11.560;2023-12-07T03:21:44;2.70;83.10
13458;DHT22;6801;53.018;11.560;2023-12-07T03:24:12;2.70;83.10
13458;DHT22;6801;53.018;11.560;2023-12-07T03:26:39;2.70;83.10
13458;DHT22;6801;53.018;11.560;2023-12-07T03:29:07;2.70;83.20
13458;DHT22;6801;53.018;11.560;2023-12-07T03:31:34;2.70;83.20
13458;DHT22;6801;53.018;11.560;2023-12-07T03:34:01;2.70;83.20
13458;DHT22;6801;53.018;11.560;2023-12-07T03:36:30;2.70;83.20
13458;DHT22;6801;53.018;11.560;2023-12-07T03:38:57;2.70;83.20
13458;DHT22;6801;53.018;11.560;2023-12-07T03:41:24;2.70;83.30
13458;DHT22;6801;53.018;11.560;2023-12-07T03:43:51;2.70;83.30
13458;DHT22;6801;53.018;11.560;2023-12-07T03:46:18;2.70;83.20
13458;DHT22;6801;53.018;11.560;2023-12-07T03:48:45;2.70;83.30
13458;DHT22;6801;53.018;11.560;2023-12-07T03:51:13;2.70;83.30
13458;DHT22;6801;53.018;11.560;2023-12-07T03:53:43;2.70;83.30
13458;DHT22;6801;53.018;11.560;2023-12-07T03:56:10;2.70;83.30
13458;DHT22;6801;53.018;11.560;2023-12-07T03:58:37;2.70;83.30
13458;DHT22;6801;53.018;11.560;2023-12-07T04:01:04;2.70;83.30
13458;DHT22;6801;53.018;11.560;2023-12-07T04:03:32;2.70;83.30
13458;DHT22;6801;53.018;11.560;2023-12-07T04:05:59;2.70;83.30
13458;DHT22;6801;53.018;11.560;2023-12-07T04:08:26;2.80;83.30
13458;DHT22;6801;53.018;11.560;2023-12-07T04:10:54;2.70;83.20
13458;DHT22;6801;53.018;11.560;2023-12-07T04:13:21;2.70;83.20
13458;DHT22;6801;53.018;11.560;2023-12-07T04:15:48;2.70;83.20
13458;DHT22;6801;53.018;11.560;2023-12-07T04:18:15;2.70;83.20
13458;DHT22;6801;53.018;11.560;2023-12-07T04:20:42;2.80;83.10
13458;DHT22;6801;53.018;11.560;2023-12-07T04:23:09;2.80;83.10
13458;DHT22;6801;53.018;11.560;2023-12-07T04:25:36;2.80;83.10
13458;DHT22;6801;53.018;11.560;2023-12-07T04:28:05;2.70;83.10
13458;DHT22;6801;53.018;11.560;2023-12-07T04:30:31;2.70;83.00
13458;DHT22;6801;53.018;11.560;2023-12-07T04:32:58;2.80;83.10
13458;DHT22;6801;53.018;11.560;2023-12-07T04:35:25;2.80;83.00
13458;DHT22;6801;53.018;11.560;2023-12-07T04:37:54;2.80;83.00
13458;DHT22;6801;53.018;11.560;2023-12-07T04:40:21;2.70;83.00
13458;DHT22;6801;53.018;11.560;2023-12-07T04:42:48;2.70;83.00
13458;DHT22;6801;53.018;11.560;2023-12-07T04:45:16;2.70;83.00
13458;DHT22;6801;53.018;11.560;2023-12-07T04:47:43;2.80;83.00
13458;DHT22;6801;53.018;11.560;2023-12-07T04:50:10;2.70;83.10
13458;DHT22;6801;53.018;11.560;2023-12-07T04:52:37;2.80;83.00
13458;DHT22;6801;53.018;11.560;2023-12-07T04:55:05;2.80;83.00
13458;DHT22;6801;53.018;11.560;2023-12-07T04:57:33;2.80;82.90
13458;DHT22;6801;53.018;11.560;2023-12-07T05:00:00;2.80;82.90
13458;DHT22;6801;53.018;11.560;2023-12-07T05:02:33;2.80;83.00
13458;DHT22;6801;53.018;11.560;2023-12-07T05:04:59;2.80;83.00
13458;DHT22;6801;53.018;11.560;2023-12-07T05:07:26;2.80;83.00
13458;DHT22;6801;53.018;11.560;2023-12-07T05:09:53;2.80;83.00
13458;DHT22;6801;53.018;11.560;2023-12-07T05:12:20;2.80;83.10
13458;DHT22;6801;53.018;11.560;2023-12-07T05:14:47;2.80;83.00
13458;DHT22;6801;53.018;11.560;2023-12-07T05:17:14;2.70;83.00
13458;DHT22;6801;53.018;11.560;2023-12-07T05:19:44;2.80;83.20
13458;DHT22;6801;53.018;11.560;2023-12-07T05:22:10;2.70;83.20
13458;DHT22;6801;53.018;11.560;2023-12-07T05:24:38;2.80;83.20
13458;DHT22;6801;53.018;11.560;2023-12-07T05:27:05;2.80;83.20
13458;DHT22;6801;53.018;11.560;2023-12-07T05:29:32;2.70;83.20
13458;DHT22;6801;53.018;11.560;2023-12-07T05:31:59;2.70;83.20
13458;DHT22;6801;53.018;11.560;2023-12-07T05:34:26;2.70;83.30
13458;DHT22;6801;53.018;11.560;2023-12-07T05:36:54;2.80;83.30
13458;DHT22;6801;53.018;11.560;2023-12-07T05:39:24;2.70;83.30
13458;DHT22;6801;53.018;11.560;2023-12-07T05:41:51;2.70;83.30
13458;DHT22;6801;53.018;11.560;2023-12-07T05:44:19;2.70;83.30
13458;DHT22;6801;53.018;11.560;2023-12-07T05:46:48;2.70;83.30
13458;DHT22;6801;53.018;11.560;2023-12-07T05:49:15;2.70;83.30
13458;DHT22;6801;53.018;11.560;2023-12-07T05:51:42;2.70;83.30
13458;DHT22;6801;53.018;11.560;2023-12-07T05:54:10;2.70;83.30
13458;DHT22;6801;53.018;11.560;2023-12-07T05:56:37;2.70;83.30
13458;DHT22;6801;53.018;11.560;2023-12-07T05:59:04;2.80;83.30
13458;DHT22;6801;53.018;11.560;2023-12-07T06:01:31;2.70;83.30
13458;DHT22;6801;53.018;11.560;2023-12-07T06:03:58;2.70;83.30
13458;DHT22;6801;53.018;11.560;2023-12-07T06:06:26;2.70;83.30
13458;DHT22;6801;53.018;11.560;2023-12-07T06:08:53;2.70;83.40
13458;DHT22;6801;53.018;11.560;2023-12-07T06:11:21;2.70;83.40
13458;DHT22;6801;53.018;11.560;2023-12-07T06:13:48;2.80;83.40
13458;DHT22;6801;53.018;11.560;2023-12-07T06:16:15;2.70;83.30
13458;DHT22;6801;53.018;11.560;2023-12-07T06:18:43;2.70;83.40
13458;DHT22;6801;53.018;11.560;2023-12-07T06:21:10;2.70;83.40
13458;DHT22;6801;53.018;11.560;2023-12-07T06:23:38;2.70;83.30
13458;DHT22;6801;53.018;11.560;2023-12-07T06:26:05;2.70;83.40
13458;DHT22;6801;53.018;11.560;2023-12-07T06:28:34;2.80;83.40
13458;DHT22;6801;53.018;11.560;2023-12-07T06:31:05;2.70;83.30
13458;DHT22;6801;53.018;11.560;2023-12-07T06:33:33;2.80;83.30
13458;DHT22;6801;53.018;11.560;2023-12-07T06:36:00;2.80;83.30
13458;DHT22;6801;53.018;11.560;2023-12-07T06:38:29;2.70;83.30
13458;DHT22;6801;53.018;11.560;2023-12-07T06:40:57;2.70;83.30
13458;DHT22;6801;53.018;11.560;2023-12-07T06:43:24;2.80;83.30
13458;DHT22;6801;53.018;11.560;2023-12-07T06:45:53;2.80;83.30
13458;DHT22;6801;53.018;11.560;2023-12-07T06:48:20;2.80;83.30
13458;DHT22;6801;53.018;11.560;2023-12-07T06:50:47;2.80;83.30
13458;DHT22;6801;53.018;11.560;2023-12-07T06:53:14;2.80;83.20
13458;DHT22;6801;53.018;11.560;2023-12-07T06:55:41;2.80;83.20
13458;DHT22;6801;53.018;11.560;2023-12-07T06:58:09;2.80;83.20
13458;DHT22;6801;53.018;11.560;2023-12-07T07:00:36;2.70;83.20
13458;DHT22;6801;53.018;11.560;2023-12-07T07:03:05;2.80;83.30
13458;DHT22;6801;53.018;11.560;2023-12-07T07:05:32;2.80;83.30
13458;DHT22;6801;53.018;11.560;2023-12-07T07:07:59;2.80;83.30
13458;DHT22;6801;53.018;11.560;2023-12-07T07:10:26;2.80;83.30
13458;DHT22;6801;53.018;11.560;2023-12-07T07:12:53;2.70;83.30
13458;DHT22;6801;53.018;11.560;2023-12-07T07:15:20;2.80;83.20
13458;DHT22;6801;53.018;11.560;2023-12-07T07:17:48;2.80;83.20
13458;DHT22;6801;53.018;11.560;2023-12-07T07:20:17;2.80;83.30
13458;DHT22;6801;53.018;11.560;2023-12-07T07:22:44;2.80;83.20
13458;DHT22;6801;53.018;11.560;2023-12-07T07:25:11;2.80;83.20
13458;DHT22;6801;53.018;11.560;2023-12-07T07:27:38;2.80;83.20
13458;DHT22;6801;53.018;11.560;2023-12-07T07:30:06;2.80;83.20
13458;DHT22;6801;53.018;11.560;2023-12-07T07:32:33;2.80;83.20
13458;DHT22;6801;53.018;11.560;2023-12-07T07:35:01;2.80;83.20
13458;DHT22;6801;53.018;11.560;2023-12-07T07:37:29;2.80;83.30
13458;DHT22;6801;53.018;11.560;2023-12-07T07:39:56;2.80;83.30
13458;DHT22;6801;53.018;11.560;2023-12-07T07:42:23;2.80;83.30
13458;DHT22;6801;53.018;11.560;2023-12-07T07:44:50;2.80;83.30
13458;DHT22;6801;53.018;11.560;2023-12-07T07:47:17;2.80;83.30
13458;DHT22;6801;53.018;11.560;2023-12-07T07:49:43;2.80;83.40
13458;DHT22;6801;53.018;11.560;2023-12-07T07:52:10;2.80;83.30
13458;DHT22;6801;53.018;11.560;2023-12-07T07:54:39;2.80;83.30
13458;DHT22;6801;53.018;11.560;2023-12-07T07:57:05;2.80;83.30
13458;DHT22;6801;53.018;11.560;2023-12-07T07:59:32;2.80;83.40
13458;DHT22;6801;53.018;11.560;2023-12-07T08:01:59;2.80;83.40
13458;DHT22;6801;53.018;11.560;2023-12-07T08:04:26;2.90;83.40
13458;DHT22;6801;53.018;11.560;2023-12-07T08:06:53;2.80;83.40
13458;DHT22;6801;53.018;11.560;2023-12-07T08:09:20;2.80;83.40
13458;DHT22;6801;53.018;11.560;2023-12-07T08:11:48;2.90;83.30
13458;DHT22;6801;53.018;11.560;2023-12-07T08:14:15;2.90;83.30
13458;DHT22;6801;53.018;11.560;2023-12-07T08:16:43;2.90;83.30
13458;DHT22;6801;53.018;11.560;2023-12-07T08:19:12;2.80;83.30
13458;DHT22;6801;53.018;11.560;2023-12-07T08:21:39;2.90;83.30
13458;DHT22;6801;53.018;11.560;2023-12-07T08:24:06;2.80;83.30
13458;DHT22;6801;53.018;11.560;2023-12-07T08:26:33;2.90;83.40
13458;DHT22;6801;53.018;11.560;2023-12-07T08:29:02;2.90;83.20
13458;DHT22;6801;53.018;11.560;2023-12-07T08:31:29;2.90;83.30
13458;DHT22;6801;53.018;11.560;2023-12-07T08:33:56;2.90;83.40
13458;DHT22;6801;53.018;11.560;2023-12-07T08:36:23;2.90;83.30
13458;DHT22;6801;53.018;11.560;2023-12-07T08:38:51;2.90;83.30
13458;DHT22;6801;53.018;11.560;2023-12-07T08:41:18;3.00;83.10
13458;DHT22;6801;53.018;11.560;2023-12-07T08:43:45;2.90;83.20
13458;DHT22;6801;53.018;11.560;2023-12-07T08:46:13;3.00;83.10
13458;DHT22;6801;53.018;11.560;2023-12-07T08:48:40;3.00;83.10
13458;DHT22;6801;53.018;11.560;2023-12-07T08:51:07;2.90;83.10
13458;DHT22;6801;53.018;11.560;2023-12-07T08:53:34;2.90;83.20
13458;DHT22;6801;53.018;11.560;2023-12-07T08:56:02;3.00;83.20
13458;DHT22;6801;53.018;11.560;2023-12-07T08:58:29;3.00;83.10
13458;DHT22;6801;53.018;11.560;2023-12-07T09:00:56;3.00;83.20
13458;DHT22;6801;53.018;11.560;2023-12-07T09:03:24;3.00;83.10
13458;DHT22;6801;53.018;11.560;2023-12-07T09:05:57;3.00;83.20
13458;DHT22;6801;53.018;11.560;2023-12-07T09:08:24;3.00;83.10
13458;DHT22;6801;53.018;11.560;2023-12-07T09:10:51;3.10;83.10
13458;DHT22;6801;53.018;11.560;2023-12-07T09:13:19;3.10;83.10
13458;DHT22;6801;53.018;11.560;2023-12-07T09:15:47;3.00;83.10
13458;DHT22;6801;53.018;11.560;2023-12-07T09:18:14;3.10;83.00
13458;DHT22;6801;53.018;11.560;2023-12-07T09:20:42;3.10;82.90
13458;DHT22;6801;53.018;11.560;2023-12-07T09:23:11;3.00;82.90
13458;DHT22;6801;53.018;11.560;2023-12-07T09:25:41;3.10;83.00
13458;DHT22;6801;53.018;11.560;2023-12-07T09:28:08;3.10;82.90
13458;DHT22;6801;53.018;11.560;2023-12-07T09:30:35;3.10;82.80
13458;DHT22;6801;53.018;11.560;2023-12-07T09:33:02;3.10;82.90
13458;DHT22;6801;53.018;11.560;2023-12-07T09:35:30;3.10;82.80
13458;DHT22;6801;53.018;11.560;2023-12-07T09:38:01;3.10;82.80
13458;DHT22;6801;53.018;11.560;2023-12-07T09:40:30;3.10;82.80
13458;DHT22;6801;53.018;11.560;2023-12-07T09:42:58;3.10;83.00
13458;DHT22;6801;53.018;11.560;2023-12-07T09:45:25;3.20;82.90
13458;DHT22;6801;53.018;11.560;2023-12-07T09:47:53;3.20;82.80
13458;DHT22;6801;53.018;11.560;2023-12-07T09:50:22;3.20;82.80
13458;DHT22;6801;53.018;11.560;2023-12-07T09:52:50;3.20;82.70
13458;DHT22;6801;53.018;11.560;2023-12-07T09:55:19;3.20;82.60
13458;DHT22;6801;53.018;11.560;2023-12-07T09:57:48;3.20;82.60
13458;DHT22;6801;53.018;11.560;2023-12-07T10:00:16;3.20;82.50
13458;DHT22;6801;53.018;11.560;2023-12-07T10:02:45;3.20;82.60
13458;DHT22;6801;53.018;11.560;2023-12-07T10:05:13;3.20;82.50
13458;DHT22;6801;53.018;11.560;2023-12-07T10:07:43;3.30;82.40
13458;DHT22;6801;53.018;11.560;2023-12-07T10:10:10;3.20;82.30
13458;DHT22;6801;53.018;11.560;2023-12-07T10:12:46;3.20;82.30
13458;DHT22;6801;53.018;11.560;2023-12-07T10:15:15;3.20;82.40
13458;DHT22;6801;53.018;11.560;2023-12-07T10:17:49;3.30;82.40
13458;DHT22;6801;53.018;11.560;2023-12-07T10:20:22;3.30;82.40
13458;DHT22;6801;53.018;11.560;2023-12-07T10:22:50;3.30;82.30
13458;DHT22;6801;53.018;11.560;2023-12-07T10:25:28;3.30;82.30
13458;DHT22;6801;53.018;11.560;2023-12-07T10:27:57;3.30;82.20
13458;DHT22;6801;53.018;11.560;2023-12-07T10:30:24;3.30;82.30
13458;DHT22;6801;53.018;11.560;2023-12-07T10:32:51;3.30;82.10
13458;DHT22;6801;53.018;11.560;2023-12-07T10:35:19;3.30;82.10
13458;DHT22;6801;53.018;11.560;2023-12-07T10:37:46;3.30;82.10
13458;DHT22;6801;53.018;11.560;2023-12-07T10:40:14;3.40;82.20
13458;DHT22;6801;53.018;11.560;2023-12-07T10:42:42;3.30;82.20
13458;DHT22;6801;53.018;11.560;2023-12-07T10:45:12;3.40;82.10
13458;DHT22;6801;53.018;11.560;2023-12-07T10:47:45;3.30;82.10
13458;DHT22;6801;53.018;11.560;2023-12-07T10:50:16;3.30;82.10
13458;DHT22;6801;53.018;11.560;2023-12-07T10:52:51;3.40;82.10
13458;DHT22;6801;53.018;11.560;2023-12-07T10:55:21;3.40;82.10
13458;DHT22;6801;53.018;11.560;2023-12-07T10:57:52;3.40;82.00
13458;DHT22;6801;53.018;11.560;2023-12-07T11:00:21;3.40;82.00
13458;DHT22;6801;53.018;11.560;2023-12-07T11:02:53;3.40;82.00
13458;DHT22;6801;53.018;11.560;2023-12-07T11:05:20;3.40;81.80
13458;DHT22;6801;53.018;11.560;2023-12-07T11:07:50;3.40;81.90
13458;DHT22;6801;53.018;11.560;2023-12-07T11:10:25;3.40;82.10
13458;DHT22;6801;53.018;11.560;2023-12-07T11:13:00;3.40;82.10
13458;DHT22;6801;53.018;11.560;2023-12-07T11:15:29;3.40;82.10
13458;DHT22;6801;53.018;11.560;2023-12-07T11:17:56;3.50;82.10
13458;DHT22;6801;53.018;11.560;2023-12-07T11:20:32;3.50;82.10
13458;DHT22;6801;53.018;11.560;2023-12-07T11:22:59;3.50;82.10
13458;DHT22;6801;53.018;11.560;2023-12-07T11:25:26;3.50;82.10
13458;DHT22;6801;53.018;11.560;2023-12-07T11:28:00;3.50;82.20
13458;DHT22;6801;53.018;11.560;2023-12-07T11:30:33;3.50;82.30
13458;DHT22;6801;53.018;11.560;2023-12-07T11:33:03;3.50;82.20
13458;DHT22;6801;53.018;11.560;2023-12-07T11:35:30;3.50;82.20
13458;DHT22;6801;53.018;11.560;2023-12-07T11:38:02;3.50;82.30
13458;DHT22;6801;53.018;11.560;2023-12-07T11:40:31;3.50;82.30
13458;DHT22;6801;53.018;11.560;2023-12-07T11:43:00;3.50;82.30
13458;DHT22;6801;53.018;11.560;2023-12-07T11:45:38;3.60;82.10
13458;DHT22;6801;53.018;11.560;2023-12-07T11:48:09;3.50;82.10
13458;DHT22;6801;53.018;11.560;2023-12-07T11:50:39;3.60;82.20
13458;DHT22;6801;53.018;11.560;2023-12-07T11:53:21;3.50;82.20
13458;DHT22;6801;53.018;11.560;2023-12-07T11:55:49;3.50;82.10
13458;DHT22;6801;53.018;11.560;2023-12-07T11:58:16;3.60;82.10
13458;DHT22;6801;53.018;11.560;2023-12-07T12:00:45;3.50;82.10
13458;DHT22;6801;53.018;11.560;2023-12-07T12:03:12;3.50;82.10
13458;DHT22;6801;53.018;11.560;2023-12-07T12:05:40;3.50;82.10
13458;DHT22;6801;53.018;11.560;2023-12-07T12:08:07;3.50;82.10
13458;DHT22;6801;53.018;11.560;2023-12-07T12:10:34;3.50;82.10
13458;DHT22;6801;53.018;11.560;2023-12-07T12:13:01;3.60;82.10
13458;DHT22;6801;53.018;11.560;2023-12-07T12:15:29;3.60;82.10
13458;DHT22;6801;53.018;11.560;2023-12-07T12:17:57;3.60;82.00
13458;DHT22;6801;53.018;11.560;2023-12-07T12:20:25;3.50;82.00
13458;DHT22;6801;53.018;11.560;2023-12-07T12:22:52;3.60;82.00
13458;DHT22;6801;53.018;11.560;2023-12-07T12:25:20;3.60;82.10
13458;DHT22;6801;53.018;11.560;2023-12-07T12:27:49;3.60;82.00
13458;DHT22;6801;53.018;11.560;2023-12-07T12:30:17;3.60;82.00
13458;DHT22;6801;53.018;11.560;2023-12-07T12:32:45;3.60;82.00
13458;DHT22;6801;53.018;11.560;2023-12-07T12:35:13;3.60;81.90
13458;DHT22;6801;53.018;11.560;2023-12-07T12:37:41;3.60;82.10
13458;DHT22;6801;53.018;11.560;2023-12-07T12:40:10;3.60;82.00
13458;DHT22;6801;53.018;11.560;2023-12-07T12:42:37;3.60;82.00
13458;DHT22;6801;53.018;11.560;2023-12-07T12:45:05;3.60;82.10
13458;DHT22;6801;53.018;11.560;2023-12-07T12:47:34;3.60;82.10
13458;DHT22;6801;53.018;11.560;2023-12-07T12:50:01;3.60;82.10
13458;DHT22;6801;53.018;11.560;2023-12-07T12:52:31;3.60;82.10
13458;DHT22;6801;53.018;11.560;2023-12-07T12:54:59;3.60;82.10
13458;DHT22;6801;53.018;11.560;2023-12-07T12:57:27;3.60;82.10
13458;DHT22;6801;53.018;11.560;2023-12-07T12:59:54;3.60;82.10
13458;DHT22;6801;53.018;11.560;2023-12-07T13:02:22;3.60;82.10
13458;DHT22;6801;53.018;11.560;2023-12-07T13:04:49;3.60;82.00
13458;DHT22;6801;53.018;11.560;2023-12-07T13:07:16;3.60;82.00
13458;DHT22;6801;53.018;11.560;2023-12-07T13:09:44;3.60;82.00
13458;DHT22;6801;53.018;11.560;2023-12-07T13:12:11;3.60;82.10
13458;DHT22;6801;53.018;11.560;2023-12-07T13:14:38;3.60;82.10
13458;DHT22;6801;53.018;11.560;2023-12-07T13:17:05;3.60;82.10
13458;DHT22;6801;53.018;11.560;2023-12-07T13:19:33;3.60;82.10
13458;DHT22;6801;53.018;11.560;2023-12-07T13:22:00;3.60;82.10
13458;DHT22;6801;53.018;11.560;2023-12-07T13:24:28;3.60;82.10
13458;DHT22;6801;53.018;11.560;2023-12-07T13:26:57;3.70;82.10
13458;DHT22;6801;53.018;11.560;2023-12-07T13:29:25;3.60;82.10
13458;DHT22;6801;53.018;11.560;2023-12-07T13:31:52;3.60;82.20
13458;DHT22;6801;53.018;11.560;2023-12-07T13:34:19;3.70;82.10
13458;DHT22;6801;53.018;11.560;2023-12-07T13:36:47;3.60;82.10
13458;DHT22;6801;53.018;11.560;2023-12-07T13:39:15;3.70;82.20
13458;DHT22;6801;53.018;11.560;2023-12-07T13:41:44;3.70;82.20
13458;DHT22;6801;53.018;11.560;2023-12-07T13:44:15;3.70;82.20
13458;DHT22;6801;53.018;11.560;2023-12-07T13:46:44;3.70;82.20
13458;DHT22;6801;53.018;11.560;2023-12-07T13:49:11;3.60;82.20
13458;DHT22;6801;53.018;11.560;2023-12-07T13:51:39;3.60;82.20
13458;DHT22;6801;53.018;11.560;2023-12-07T13:54:06;3.60;82.10
13458;DHT22;6801;53.018;11.560;2023-12-07T13:56:34;3.70;82.10
13458;DHT22;6801;53.018;11.560;2023-12-07T13:59:00;3.70;82.10
13458;DHT22;6801;53.018;11.560;2023-12-07T14:01:29;3.70;82.00
13458;DHT22;6801;53.018;11.560;2023-12-07T14:03:57;3.70;82.00
13458;DHT22;6801;53.018;11.560;2023-12-07T14:06:27;3.70;82.10
13458;DHT22;6801;53.018;11.560;2023-12-07T14:08:54;3.70;82.10
13458;DHT22;6801;53.018;11.560;2023-12-07T14:11:21;3.70;82.00
13458;DHT22;6801;53.018;11.560;2023-12-07T14:13:48;3.70;82.00
13458;DHT22;6801;53.018;11.560;2023-12-07T14:16:19;3.70;82.10
13458;DHT22;6801;53.018;11.560;2023-12-07T14:18:47;3.70;82.10
13458;DHT22;6801;53.018;11.560;2023-12-07T14:21:19;3.70;82.00
13458;DHT22;6801;53.018;11.560;2023-12-07T14:23:46;3.70;82.10
13458;DHT22;6801;53.018;11.560;2023-12-07T14:26:13;3.70;82.10
13458;DHT22;6801;53.018;11.560;2023-12-07T14:28:40;3.70;82.20
13458;DHT22;6801;53.018;11.560;2023-12-07T14:31:07;3.70;82.20
13458;DHT22;6801;53.018;11.560;2023-12-07T14:33:40;3.70;82.20
13458;DHT22;6801;53.018;11.560;2023-12-07T14:36:10;3.70;82.20
13458;DHT22;6801;53.018;11.560;2023-12-07T14:38:38;3.70;82.20
13458;DHT22;6801;53.018;11.560;2023-12-07T14:41:06;3.70;82.10
13458;DHT22;6801;53.018;11.560;2023-12-07T14:43:33;3.70;82.10
13458;DHT22;6801;53.018;11.560;2023-12-07T14:46:00;3.70;82.20
13458;DHT22;6801;53.018;11.560;2023-12-07T14:48:28;3.70;82.20
13458;DHT22;6801;53.018;11.560;2023-12-07T14:50:55;3.60;82.30
13458;DHT22;6801;53.018;11.560;2023-12-07T14:53:24;3.70;82.20
13458;DHT22;6801;53.018;11.560;2023-12-07T14:55:52;3.70;82.20
13458;DHT22;6801;53.018;11.560;2023-12-07T14:58:19;3.70;82.20
13458;DHT22;6801;53.018;11.560;2023-12-07T15:00:46;3.60;82.20
13458;DHT22;6801;53.018;11.560;2023-12-07T15:03:13;3.70;82.30
13458;DHT22;6801;53.018;11.560;2023-12-07T15:05:40;3.60;82.30
13458;DHT22;6801;53.018;11.560;2023-12-07T15:08:08;3.70;82.30
13458;DHT22;6801;53.018;11.560;2023-12-07T15:10:38;3.70;82.20
13458;DHT22;6801;53.018;11.560;2023-12-07T15:13:05;3.70;82.20
13458;DHT22;6801;53.018;11.560;2023-12-07T15:15:32;3.70;82.20
13458;DHT22;6801;53.018;11.560;2023-12-07T15:17:59;3.70;82.20
13458;DHT22;6801;53.018;11.560;2023-12-07T15:20:27;3.70;82.20
13458;DHT22;6801;53.018;11.560;2023-12-07T15:22:54;3.70;82.20
13458;DHT22;6801;53.018;11.560;2023-12-07T15:25:22;3.60;82.30
13458;DHT22;6801;53.018;11.560;2023-12-07T15:27:51;3.70;82.30
13458;DHT22;6801;53.018;11.560;2023-12-07T15:30:18;3.70;82.30
13458;DHT22;6801;53.018;11.560;2023-12-07T15:32:48;3.70;82.20
13458;DHT22;6801;53.018;11.560;2023-12-07T15:35:16;3.70;82.10
13458;DHT22;6801;53.018;11.560;2023-12-07T15:37:44;3.70;82.20
13458;DHT22;6801;53.018;11.560;2023-12-07T15:40:13;3.60;82.20
13458;DHT22;6801;53.018;11.560;2023-12-07T15:42:40;3.70;82.20
13458;DHT22;6801;53.018;11.560;2023-12-07T15:45:09;3.70;82.20
13458;DHT22;6801;53.018;11.560;2023-12-07T15:47:36;3.60;82.10
13458;DHT22;6801;53.018;11.560;2023-12-07T15:50:04;3.70;82.20